sensor_id;sensor_type;location;lat;lon;timestamp;pressure;altitude;pressure_sealevel;temperature;humidity
49341;BME280;35209;51.050;13.678;2023-01-25T00:01:10;101957.91;;;0.54;100.00
49341;BME280;35209;51.050;13.678;2023-01-25T00:06:12;101965.28;;;0.44;100.00
49341;BME280;35209;51.050;13.678;2023-01-25T00:11:13;101959.38;;;0.48;100.00
49341;BME280;35209;51.050;13.678;2023-01-25T00:16:17;101951.94;;;0.56;100.00
49341;BME280;35209;51.050;13.678;2023-01-25T00:21:21;101952.53;;;0.49;100.00
49341;BME280;35209;51.050;13.678;2023-01-25T00:26:23;101950.66;;;0.45;100.00
49341;BME280;35209;51.050;13.678;2023-01-25T00:37:38;101949.78;;;0.44;100.00
49341;BME280;35209;51.050;13.678;2023-01-25T00:42:40;101955.31;;;0.54;100.00
49341;BME280;35209;51.050;13.678;2023-01-25T00:47:42;101955.41;;;0.57;100.00
49341;BME280;35209;51.050;13.678;2023-01-25T00:52:45;101946.84;;;0.58;100.00
49341;BME280;35209;51.050;13.678;2023-01-25T00:57:47;101943.88;;;0.48;100.00
49341;BME280;35209;51.050;13.678;2023-01-25T01:02:48;101941.28;;;0.48;100.00
49341;BME280;35209;51.050;13.678;2023-01-25T01:07:50;101935.13;;;0.45;100.00
49341;BME280;35209;51.050;13.678;2023-01-25T01:12:52;101933.81;;;0.56;100.00
49341;BME280;35209;51.050;13.678;2023-01-25T01:24:10;101926.16;;;0.58;100.00
49341;BME280;35209;51.050;13.678;2023-01-25T01:29:12;101919.31;;;0.60;100.00
49341;BME280;35209;51.050;13.678;2023-01-25T01:34:14;101907.13;;;0.57;100.00
49341;BME280;35209;51.050;13.678;2023-01-25T01:39:16;101898.25;;;0.73;100.00
49341;BME280;35209;51.050;13.678;2023-01-25T01:44:20;101889.00;;;0.80;100.00
49341;BME280;35209;51.050;13.678;2023-01-25T01:49:30;101882.00;;;0.77;100.00
49341;BME280;35209;51.050;13.678;2023-01-25T01:54:48;101878.00;;;0.85;100.00
49341;BME280;35209;51.050;13.678;2023-01-25T02:00:06;101879.94;;;0.91;100.00
49341;BME280;35209;51.050;13.678;2023-01-25T02:05:19;101863.22;;;0.83;100.00
49341;BME280;35209;51.050;13.678;2023-01-25T02:10:24;101863.09;;;0.80;100.00
49341;BME280;35209;51.050;13.678;2023-01-25T02:15:42;101863.31;;;0.84;100.00
49341;BME280;35209;51.050;13.678;2023-01-25T02:20:48;101863.06;;;0.78;100.00
49341;BME280;35209;51.050;13.678;2023-01-25T02:25:51;101851.06;;;1.04;100.00
49341;BME280;35209;51.050;13.678;2023-01-25T02:30:52;101843.69;;;0.91;100.00
49341;BME280;35209;51.050;13.678;2023-01-25T02:36:39;101844.97;;;0.80;100.00
49341;BME280;35209;51.050;13.678;2023-01-25T02:46:35;101826.47;;;0.93;100.00
49341;BME280;35209;51.050;13.678;2023-01-25T02:51:40;101817.19;;;0.74;100.00
49341;BME280;35209;51.050;13.678;2023-01-25T02:56:42;101815.03;;;0.62;100.00
49341;BME280;35209;51.050;13.678;2023-01-25T03:01:45;101809.50;;;0.75;100.00
49341;BME280;35209;51.050;13.678;2023-01-25T03:06:48;101810.38;;;0.76;100.00
49341;BME280;35209;51.050;13.678;2023-01-25T03:11:51;101813.44;;;0.90;100.00
49341;BME280;35209;51.050;13.678;2023-01-25T03:16:55;101818.78;;;0.94;100.00
49341;BME280;35209;51.050;13.678;2023-01-25T03:21:59;101811.13;;;0.73;100.00
49341;BME280;35209;51.050;13.678;2023-01-25T03:27:01;101805.81;;;0.70;100.00
49341;BME280;35209;51.050;13.678;2023-01-25T03:32:36;101806.53;;;0.66;100.00
49341;BME280;35209;51.050;13.678;2023-01-25T03:37:43;101802.84;;;0.60;100.00
49341;BME280;35209;51.050;13.678;2023-01-25T03:42:45;101804.22;;;0.50;100.00
49341;BME280;35209;51.050;13.678;2023-01-25T03:47:47;101795.47;;;0.70;100.00
49341;BME280;35209;51.050;13.678;2023-01-25T03:52:49;101797.81;;;0.63;100.00
49341;BME280;35209;51.050;13.678;2023-01-25T03:57:58;101790.13;;;0.66;100.00
49341;BME280;35209;51.050;13.678;2023-01-25T04:03:00;101801.31;;;0.65;100.00
49341;BME280;35209;51.050;13.678;2023-01-25T04:08:02;101796.25;;;0.68;100.00
49341;BME280;35209;51.050;13.678;2023-01-25T04:13:11;101784.13;;;0.91;100.00
49341;BME280;35209;51.050;13.678;2023-01-25T04:18:13;101787.88;;;0.75;100.00
49341;BME280;35209;51.050;13.678;2023-01-25T04:23:15;101784.56;;;0.79;100.00
49341;BME280;35209;51.050;13.678;2023-01-25T04:28:19;101776.88;;;0.81;100.00
49341;BME280;35209;51.050;13.678;2023-01-25T04:33:21;101776.56;;;0.71;100.00
49341;BME280;35209;51.050;13.678;2023-01-25T04:38:23;101778.72;;;0.61;100.00
49341;BME280;35209;51.050;13.678;2023-01-25T04:43:26;101782.53;;;0.70;100.00
49341;BME280;35209;51.050;13.678;2023-01-25T04:48:33;101786.91;;;0.71;100.00
49341;BME280;35209;51.050;13.678;2023-01-25T04:53:38;101782.09;;;0.82;100.00
49341;BME280;35209;51.050;13.678;2023-01-25T04:58:40;101783.25;;;0.90;100.00
49341;BME280;35209;51.050;13.678;2023-01-25T05:03:43;101774.84;;;0.72;100.00
49341;BME280;35209;51.050;13.678;2023-01-25T05:09:19;101772.09;;;0.67;100.00
49341;BME280;35209;51.050;13.678;2023-01-25T05:14:22;101769.41;;;0.66;100.00
49341;BME280;35209;51.050;13.678;2023-01-25T05:19:25;101768.16;;;0.79;100.00
49341;BME280;35209;51.050;13.678;2023-01-25T05:24:33;101766.63;;;0.84;100.00
49341;BME280;35209;51.050;13.678;2023-01-25T05:29:39;101766.19;;;0.71;100.00
49341;BME280;35209;51.050;13.678;2023-01-25T05:34:43;101769.28;;;0.85;100.00
49341;BME280;35209;51.050;13.678;2023-01-25T05:39:45;101754.38;;;0.80;100.00
49341;BME280;35209;51.050;13.678;2023-01-25T05:44:47;101751.34;;;0.91;100.00
49341;BME280;35209;51.050;13.678;2023-01-25T05:49:50;101752.47;;;0.74;100.00
49341;BME280;35209;51.050;13.678;2023-01-25T05:55:01;101743.38;;;0.85;100.00
49341;BME280;35209;51.050;13.678;2023-01-25T06:00:04;101741.53;;;0.81;100.00
49341;BME280;35209;51.050;13.678;2023-01-25T06:05:13;101739.22;;;0.89;100.00
49341;BME280;35209;51.050;13.678;2023-01-25T06:10:15;101739.47;;;0.72;100.00
49341;BME280;35209;51.050;13.678;2023-01-25T06:15:19;101730.91;;;0.49;100.00
49341;BME280;35209;51.050;13.678;2023-01-25T06:20:21;101733.16;;;0.64;100.00
49341;BME280;35209;51.050;13.678;2023-01-25T06:25:38;101742.91;;;0.71;100.00
49341;BME280;35209;51.050;13.678;2023-01-25T06:30:40;101742.19;;;0.75;100.00
49341;BME280;35209;51.050;13.678;2023-01-25T06:35:41;101725.88;;;0.78;100.00
49341;BME280;35209;51.050;13.678;2023-01-25T06:40:43;101727.75;;;0.58;100.00
49341;BME280;35209;51.050;13.678;2023-01-25T06:45:45;101738.44;;;0.67;100.00
49341;BME280;35209;51.050;13.678;2023-01-25T06:51:02;101726.94;;;0.59;100.00
49341;BME280;35209;51.050;13.678;2023-01-25T06:56:08;101728.34;;;0.51;100.00
49341;BME280;35209;51.050;13.678;2023-01-25T07:01:18;101726.59;;;0.50;100.00
49341;BME280;35209;51.050;13.678;2023-01-25T07:06:21;101719.88;;;0.55;100.00
49341;BME280;35209;51.050;13.678;2023-01-25T07:11:23;101706.50;;;0.67;100.00
49341;BME280;35209;51.050;13.678;2023-01-25T07:16:25;101705.78;;;0.96;100.00
49341;BME280;35209;51.050;13.678;2023-01-25T07:21:27;101696.56;;;1.05;100.00
49341;BME280;35209;51.050;13.678;2023-01-25T07:26:29;101692.53;;;0.87;100.00
49341;BME280;35209;51.050;13.678;2023-01-25T07:31:31;101694.69;;;0.75;100.00
49341;BME280;35209;51.050;13.678;2023-01-25T07:36:33;101700.56;;;0.95;100.00
49341;BME280;35209;51.050;13.678;2023-01-25T07:41:35;101674.69;;;0.95;100.00
49341;BME280;35209;51.050;13.678;2023-01-25T07:46:37;101677.09;;;0.90;100.00
49341;BME280;35209;51.050;13.678;2023-01-25T07:51:38;101674.13;;;0.80;100.00
49341;BME280;35209;51.050;13.678;2023-01-25T07:56:40;101667.31;;;0.82;100.00
49341;BME280;35209;51.050;13.678;2023-01-25T08:01:42;101667.94;;;0.74;100.00
49341;BME280;35209;51.050;13.678;2023-01-25T08:06:44;101661.59;;;0.66;100.00
49341;BME280;35209;51.050;13.678;2023-01-25T08:11:46;101648.50;;;0.62;100.00
49341;BME280;35209;51.050;13.678;2023-01-25T08:16:49;101654.06;;;0.72;100.00
49341;BME280;35209;51.050;13.678;2023-01-25T08:21:51;101649.50;;;0.65;100.00
49341;BME280;35209;51.050;13.678;2023-01-25T08:26:53;101648.50;;;0.62;100.00
49341;BME280;35209;51.050;13.678;2023-01-25T08:31:55;101658.66;;;0.56;100.00
49341;BME280;35209;51.050;13.678;2023-01-25T08:36:57;101653.13;;;0.70;100.00
49341;BME280;35209;51.050;13.678;2023-01-25T08:41:59;101657.34;;;0.67;100.00
49341;BME280;35209;51.050;13.678;2023-01-25T08:47:00;101651.84;;;0.58;100.00
49341;BME280;35209;51.050;13.678;2023-01-25T08:52:02;101646.81;;;0.62;100.00
49341;BME280;35209;51.050;13.678;2023-01-25T08:57:04;101640.34;;;0.75;100.00
49341;BME280;35209;51.050;13.678;2023-01-25T09:02:10;101643.69;;;0.71;100.00
49341;BME280;35209;51.050;13.678;2023-01-25T09:07:12;101644.88;;;0.81;100.00
49341;BME280;35209;51.050;13.678;2023-01-25T09:12:14;101639.72;;;0.82;100.00
49341;BME280;35209;51.050;13.678;2023-01-25T09:17:16;101632.41;;;0.70;100.00
49341;BME280;35209;51.050;13.678;2023-01-25T09:22:17;101633.25;;;0.69;100.00
49341;BME280;35209;51.050;13.678;2023-01-25T09:27:19;101625.06;;;0.83;100.00
49341;BME280;35209;51.050;13.678;2023-01-25T09:32:21;101616.31;;;0.79;100.00
49341;BME280;35209;51.050;13.678;2023-01-25T09:37:26;101606.16;;;1.11;100.00
49341;BME280;35209;51.050;13.678;2023-01-25T09:53:19;101596.16;;;0.96;100.00
49341;BME280;35209;51.050;13.678;2023-01-25T09:58:28;101604.50;;;0.87;100.00
49341;BME280;35209;51.050;13.678;2023-01-25T10:03:45;101605.91;;;1.03;100.00
49341;BME280;35209;51.050;13.678;2023-01-25T10:08:55;101609.09;;;0.96;100.00
49341;BME280;35209;51.050;13.678;2023-01-25T10:13:59;101604.47;;;1.13;100.00
49341;BME280;35209;51.050;13.678;2023-01-25T10:19:14;101597.16;;;0.99;100.00
49341;BME280;35209;51.050;13.678;2023-01-25T10:29:27;101580.16;;;1.08;100.00
49341;BME280;35209;51.050;13.678;2023-01-25T10:34:36;101578.19;;;1.00;100.00
49341;BME280;35209;51.050;13.678;2023-01-25T10:40:02;101567.97;;;1.05;100.00
49341;BME280;35209;51.050;13.678;2023-01-25T10:45:12;101560.44;;;1.13;99.74
49341;BME280;35209;51.050;13.678;2023-01-25T11:01:25;101533.97;;;0.94;98.88
49341;BME280;35209;51.050;13.678;2023-01-25T11:11:35;101511.41;;;0.90;98.24
49341;BME280;35209;51.050;13.678;2023-01-25T11:16:39;101514.38;;;1.03;97.92
49341;BME280;35209;51.050;13.678;2023-01-25T11:21:51;101502.81;;;0.91;99.37
49341;BME280;35209;51.050;13.678;2023-01-25T11:32:20;101485.06;;;1.04;97.68
49341;BME280;35209;51.050;13.678;2023-01-25T11:42:56;101474.34;;;0.91;100.00
49341;BME280;35209;51.050;13.678;2023-01-25T11:48:34;101453.81;;;0.97;96.46
49341;BME280;35209;51.050;13.678;2023-01-25T12:46:56;101350.66;;;0.53;99.85
49341;BME280;35209;51.050;13.678;2023-01-25T12:52:05;101332.53;;;0.81;100.00
49341;BME280;35209;51.050;13.678;2023-01-25T12:57:16;101331.00;;;0.58;100.00
49341;BME280;35209;51.050;13.678;2023-01-25T13:08:13;101326.97;;;0.97;100.00
49341;BME280;35209;51.050;13.678;2023-01-25T13:13:31;101313.03;;;1.25;95.55
49341;BME280;35209;51.050;13.678;2023-01-25T13:18:35;101316.25;;;1.17;97.32
49341;BME280;35209;51.050;13.678;2023-01-25T13:23:41;101303.53;;;1.26;96.50
49341;BME280;35209;51.050;13.678;2023-01-25T13:29:01;101301.06;;;1.31;96.45
49341;BME280;35209;51.050;13.678;2023-01-25T13:34:08;101290.34;;;1.17;96.97
49341;BME280;35209;51.050;13.678;2023-01-25T13:44:32;101277.44;;;1.51;93.48
49341;BME280;35209;51.050;13.678;2023-01-25T13:49:41;101274.22;;;1.27;95.02
49341;BME280;35209;51.050;13.678;2023-01-25T13:54:46;101268.53;;;1.07;98.17
49341;BME280;35209;51.050;13.678;2023-01-25T13:59:57;101261.00;;;1.16;97.32
49341;BME280;35209;51.050;13.678;2023-01-25T14:05:16;101248.25;;;0.92;97.68
49341;BME280;35209;51.050;13.678;2023-01-25T14:10:22;101255.50;;;1.06;98.33
49341;BME280;35209;51.050;13.678;2023-01-25T14:15:27;101237.34;;;1.03;99.17
49341;BME280;35209;51.050;13.678;2023-01-25T14:20:29;101229.38;;;0.96;98.93
49341;BME280;35209;51.050;13.678;2023-01-25T14:25:32;101232.56;;;0.86;99.73
49341;BME280;35209;51.050;13.678;2023-01-25T14:30:35;101217.22;;;1.27;96.54
49341;BME280;35209;51.050;13.678;2023-01-25T14:35:39;101223.69;;;1.10;98.11
49341;BME280;35209;51.050;13.678;2023-01-25T14:40:54;101218.28;;;1.34;94.30
49341;BME280;35209;51.050;13.678;2023-01-25T14:45:56;101211.22;;;0.93;97.97
49341;BME280;35209;51.050;13.678;2023-01-25T14:51:26;101205.41;;;1.04;97.48
49341;BME280;35209;51.050;13.678;2023-01-25T14:56:33;101193.53;;;1.12;96.04
49341;BME280;35209;51.050;13.678;2023-01-25T15:01:38;101186.78;;;1.18;96.24
49341;BME280;35209;51.050;13.678;2023-01-25T15:06:47;101187.53;;;1.14;96.25
49341;BME280;35209;51.050;13.678;2023-01-25T15:11:58;101170.78;;;0.98;98.47
49341;BME280;35209;51.050;13.678;2023-01-25T15:17:00;101167.88;;;0.86;100.00
49341;BME280;35209;51.050;13.678;2023-01-25T15:22:04;101152.88;;;0.74;100.00
49341;BME280;35209;51.050;13.678;2023-01-25T15:27:08;101148.00;;;0.85;100.00
49341;BME280;35209;51.050;13.678;2023-01-25T15:32:18;101143.78;;;0.89;100.00
49341;BME280;35209;51.050;13.678;2023-01-25T15:37:21;101136.66;;;0.80;100.00
49341;BME280;35209;51.050;13.678;2023-01-25T15:42:23;101133.44;;;0.90;100.00
49341;BME280;35209;51.050;13.678;2023-01-25T15:47:25;101141.88;;;0.82;100.00
49341;BME280;35209;51.050;13.678;2023-01-25T15:52:27;101118.22;;;0.68;100.00
49341;BME280;35209;51.050;13.678;2023-01-25T15:57:31;101115.41;;;0.59;100.00
49341;BME280;35209;51.050;13.678;2023-01-25T16:02:34;101107.44;;;0.84;100.00
49341;BME280;35209;51.050;13.678;2023-01-25T16:07:37;101097.63;;;0.72;100.00
49341;BME280;35209;51.050;13.678;2023-01-25T16:12:40;101094.06;;;0.67;100.00
49341;BME280;35209;51.050;13.678;2023-01-25T16:17:43;101088.13;;;0.71;100.00
49341;BME280;35209;51.050;13.678;2023-01-25T16:22:46;101090.19;;;0.52;100.00
49341;BME280;35209;51.050;13.678;2023-01-25T16:27:49;101080.53;;;0.44;100.00
49341;BME280;35209;51.050;13.678;2023-01-25T16:32:51;101077.81;;;0.73;100.00
49341;BME280;35209;51.050;13.678;2023-01-25T16:37:53;101067.38;;;1.06;100.00
49341;BME280;35209;51.050;13.678;2023-01-25T16:42:55;101062.28;;;1.09;99.84
49341;BME280;35209;51.050;13.678;2023-01-25T16:47:57;101053.78;;;0.79;100.00
49341;BME280;35209;51.050;13.678;2023-01-25T16:52:59;101053.53;;;0.68;100.00
49341;BME280;35209;51.050;13.678;2023-01-25T16:58:00;101057.41;;;0.85;100.00
49341;BME280;35209;51.050;13.678;2023-01-25T17:03:02;101051.81;;;0.68;100.00
49341;BME280;35209;51.050;13.678;2023-01-25T17:08:05;101039.63;;;0.64;100.00
49341;BME280;35209;51.050;13.678;2023-01-25T17:13:07;101032.22;;;0.80;100.00
49341;BME280;35209;51.050;13.678;2023-01-25T17:18:09;101026.72;;;0.66;100.00
49341;BME280;35209;51.050;13.678;2023-01-25T17:23:10;101027.22;;;0.49;100.00
49341;BME280;35209;51.050;13.678;2023-01-25T17:28:13;101017.09;;;0.59;100.00
49341;BME280;35209;51.050;13.678;2023-01-25T17:33:16;101008.47;;;0.60;100.00
49341;BME280;35209;51.050;13.678;2023-01-25T17:38:18;101005.38;;;0.74;100.00
49341;BME280;35209;51.050;13.678;2023-01-25T17:43:21;100991.25;;;0.62;100.00
49341;BME280;35209;51.050;13.678;2023-01-25T17:48:23;100991.88;;;0.50;100.00
49341;BME280;35209;51.050;13.678;2023-01-25T17:53:25;100995.44;;;0.57;100.00
49341;BME280;35209;51.050;13.678;2023-01-25T17:58:27;100988.53;;;0.56;100.00
49341;BME280;35209;51.050;13.678;2023-01-25T18:03:31;100980.91;;;0.62;100.00
49341;BME280;35209;51.050;13.678;2023-01-25T18:08:37;100979.78;;;0.50;100.00
49341;BME280;35209;51.050;13.678;2023-01-25T18:13:41;100976.25;;;0.47;100.00
49341;BME280;35209;51.050;13.678;2023-01-25T18:18:44;100973.66;;;0.45;100.00
49341;BME280;35209;51.050;13.678;2023-01-25T18:23:47;100973.81;;;0.53;100.00
49341;BME280;35209;51.050;13.678;2023-01-25T18:28:52;100959.44;;;0.66;100.00
49341;BME280;35209;51.050;13.678;2023-01-25T18:33:54;100960.47;;;0.71;100.00
49341;BME280;35209;51.050;13.678;2023-01-25T18:38:56;100966.94;;;0.54;100.00
49341;BME280;35209;51.050;13.678;2023-01-25T18:44:00;100958.47;;;0.61;100.00
49341;BME280;35209;51.050;13.678;2023-01-25T18:49:02;100961.38;;;0.38;100.00
49341;BME280;35209;51.050;13.678;2023-01-25T18:54:04;100953.06;;;0.50;100.00
49341;BME280;35209;51.050;13.678;2023-01-25T18:59:06;100941.88;;;0.51;100.00
49341;BME280;35209;51.050;13.678;2023-01-25T19:04:08;100935.50;;;0.37;100.00
49341;BME280;35209;51.050;13.678;2023-01-25T19:09:12;100917.44;;;0.76;100.00
49341;BME280;35209;51.050;13.678;2023-01-25T19:14:14;100915.75;;;0.78;100.00
49341;BME280;35209;51.050;13.678;2023-01-25T19:19:16;100898.47;;;0.77;100.00
49341;BME280;35209;51.050;13.678;2023-01-25T19:24:18;100886.84;;;0.97;100.00
49341;BME280;35209;51.050;13.678;2023-01-25T19:29:21;100879.53;;;0.80;100.00
49341;BME280;35209;51.050;13.678;2023-01-25T19:34:23;100881.31;;;0.81;100.00
49341;BME280;35209;51.050;13.678;2023-01-25T19:39:25;100875.34;;;0.85;100.00
49341;BME280;35209;51.050;13.678;2023-01-25T19:44:27;100867.28;;;0.32;100.00
49341;BME280;35209;51.050;13.678;2023-01-25T19:49:29;100867.00;;;0.21;100.00
49341;BME280;35209;51.050;13.678;2023-01-25T19:54:31;100857.50;;;0.20;100.00
49341;BME280;35209;51.050;13.678;2023-01-25T19:59:33;100867.84;;;0.18;100.00
49341;BME280;35209;51.050;13.678;2023-01-25T20:04:35;100867.66;;;0.11;100.00
49341;BME280;35209;51.050;13.678;2023-01-25T20:09:37;100853.84;;;0.10;100.00
49341;BME280;35209;51.050;13.678;2023-01-25T20:14:39;100860.75;;;0.11;100.00
49341;BME280;35209;51.050;13.678;2023-01-25T20:19:41;100859.25;;;0.21;100.00
49341;BME280;35209;51.050;13.678;2023-01-25T20:24:44;100843.72;;;0.19;100.00
49341;BME280;35209;51.050;13.678;2023-01-25T20:29:46;100842.19;;;0.28;100.00
49341;BME280;35209;51.050;13.678;2023-01-25T20:34:49;100843.63;;;0.16;100.00
49341;BME280;35209;51.050;13.678;2023-01-25T20:39:51;100841.72;;;0.08;100.00
49341;BME280;35209;51.050;13.678;2023-01-25T20:44:53;100824.47;;;0.08;100.00
49341;BME280;35209;51.050;13.678;2023-01-25T20:49:54;100822.72;;;0.06;100.00
49341;BME280;35209;51.050;13.678;2023-01-25T20:54:56;100811.31;;;-0.03;100.00
49341;BME280;35209;51.050;13.678;2023-01-25T20:59:58;100797.72;;;0.05;100.00
49341;BME280;35209;51.050;13.678;2023-01-25T21:04:59;100791.91;;;0.15;100.00
49341;BME280;35209;51.050;13.678;2023-01-25T21:10:01;100799.47;;;0.07;100.00
49341;BME280;35209;51.050;13.678;2023-01-25T21:15:03;100790.06;;;0.09;100.00
49341;BME280;35209;51.050;13.678;2023-01-25T21:20:06;100771.88;;;0.06;100.00
49341;BME280;35209;51.050;13.678;2023-01-25T21:25:08;100780.53;;;0.08;100.00
49341;BME280;35209;51.050;13.678;2023-01-25T21:30:13;100773.03;;;0.19;100.00
49341;BME280;35209;51.050;13.678;2023-01-25T21:35:16;100766.00;;;0.13;100.00
49341;BME280;35209;51.050;13.678;2023-01-25T21:40:17;100768.63;;;0.15;100.00
49341;BME280;35209;51.050;13.678;2023-01-25T21:45:21;100759.16;;;0.14;100.00
49341;BME280;35209;51.050;13.678;2023-01-25T21:50:41;100750.94;;;0.33;100.00
49341;BME280;35209;51.050;13.678;2023-01-25T21:56:01;100747.22;;;0.22;100.00
49341;BME280;35209;51.050;13.678;2023-01-25T22:01:03;100747.97;;;0.15;100.00
49341;BME280;35209;51.050;13.678;2023-01-25T22:06:10;100750.66;;;0.21;100.00
49341;BME280;35209;51.050;13.678;2023-01-25T22:11:12;100753.72;;;0.44;100.00
49341;BME280;35209;51.050;13.678;2023-01-25T22:16:14;100756.88;;;0.29;100.00
49341;BME280;35209;51.050;13.678;2023-01-25T22:21:18;100755.13;;;0.28;100.00
49341;BME280;35209;51.050;13.678;2023-01-25T22:26:21;100741.78;;;0.49;100.00
49341;BME280;35209;51.050;13.678;2023-01-25T22:31:29;100728.69;;;0.41;100.00
49341;BME280;35209;51.050;13.678;2023-01-25T22:36:31;100723.16;;;0.24;100.00
49341;BME280;35209;51.050;13.678;2023-01-25T22:41:35;100722.31;;;0.25;100.00
49341;BME280;35209;51.050;13.678;2023-01-25T22:46:37;100719.44;;;0.12;100.00
49341;BME280;35209;51.050;13.678;2023-01-25T22:51:39;100721.63;;;0.33;100.00
49341;BME280;35209;51.050;13.678;2023-01-25T22:56:40;100718.66;;;0.14;100.00
49341;BME280;35209;51.050;13.678;2023-01-25T23:01:42;100706.44;;;0.09;100.00
49341;BME280;35209;51.050;13.678;2023-01-25T23:06:44;100707.44;;;0.14;100.00
49341;BME280;35209;51.050;13.678;2023-01-25T23:11:46;100697.13;;;0.17;100.00
49341;BME280;35209;51.050;13.678;2023-01-25T23:16:48;100690.13;;;0.11;100.00
49341;BME280;35209;51.050;13.678;2023-01-25T23:21:49;100689.94;;;0.01;100.00
49341;BME280;35209;51.050;13.678;2023-01-25T23:26:51;100683.25;;;0.12;100.00
49341;BME280;35209;51.050;13.678;2023-01-25T23:31:53;100672.03;;;0.10;100.00
49341;BME280;35209;51.050;13.678;2023-01-25T23:36:55;100663.34;;;0.08;100.00
49341;BME280;35209;51.050;13.678;2023-01-25T23:41:56;100656.63;;;0.16;100.00
49341;BME280;35209;51.050;13.678;2023-01-25T23:46:58;100645.22;;;0.06;100.00
49341;BME280;35209;51.050;13.678;2023-01-25T23:52:00;100634.16;;;0.13;100.00
49341;BME280;35209;51.050;13.678;2023-01-25T23:57:02;100636.06;;;0.22;100.00
